createdAt,value
2017-07-24T00:00:18.162Z,69.70
2017-07-24T00:02:45.713Z,69.60
2017-07-24T00:05:13.266Z,69.20
2017-07-24T00:07:40.847Z,69.20
2017-07-24T00:10:08.390Z,69.10
2017-07-24T00:12:35.962Z,69.60
2017-07-24T00:15:03.511Z,69.20
2017-07-24T00:17:31.078Z,69.20
2017-07-24T00:19:58.659Z,69.30
2017-07-24T00:22:26.975Z,69.80
2017-07-24T00:24:54.529Z,69.80
2017-07-24T00:27:22.079Z,70.60
2017-07-24T00:29:49.637Z,70.70
2017-07-24T00:32:17.250Z,70.30
2017-07-24T00:34:44.810Z,70.50
2017-07-24T00:37:12.475Z,71.10
2017-07-24T00:39:40.134Z,71.60
2017-07-24T00:42:07.686Z,71.50
2017-07-24T00:44:35.267Z,72.20
2017-07-24T00:47:02.810Z,72.50
2017-07-24T00:49:30.473Z,72.60
2017-07-24T00:51:58.126Z,72.00
2017-07-24T00:54:25.677Z,71.90
2017-07-24T00:56:53.350Z,71.50
2017-07-24T00:59:20.898Z,71.20
2017-07-24T01:01:48.472Z,71.20
2017-07-24T01:04:16.130Z,70.80
2017-07-24T01:06:43.786Z,70.50
2017-07-24T01:09:11.454Z,70.40
2017-07-24T01:11:39.002Z,70.50
2017-07-24T01:14:06.570Z,70.70
2017-07-24T01:16:34.231Z,71.60
2017-07-24T01:19:01.785Z,71.80
2017-07-24T01:21:29.451Z,72.10
2017-07-24T01:23:57.109Z,72.60
2017-07-24T01:26:24.774Z,72.50
2017-07-24T01:28:52.431Z,72.20
2017-07-24T01:31:19.983Z,71.70
2017-07-24T01:33:47.568Z,71.40
2017-07-24T01:36:15.126Z,71.40
2017-07-24T01:38:42.774Z,71.30
2017-07-24T01:41:10.317Z,71.20
2017-07-24T01:43:37.898Z,71.00
2017-07-24T01:46:05.491Z,70.50
2017-07-24T01:48:33.830Z,70.70
2017-07-24T01:51:01.490Z,70.60
2017-07-24T01:53:29.150Z,71.20
2017-07-24T01:55:56.818Z,71.80
2017-07-24T01:58:24.481Z,71.50
2017-07-24T02:00:52.134Z,70.90
2017-07-24T02:03:19.805Z,71.00
2017-07-24T02:05:47.383Z,71.50
2017-07-24T02:08:15.709Z,70.80
2017-07-24T02:10:43.394Z,70.70
2017-07-24T02:13:11.059Z,70.40
2017-07-24T02:15:38.618Z,70.40
2017-07-24T02:18:06.162Z,70.20
2017-07-24T02:20:33.718Z,70.70
2017-07-24T02:23:01.324Z,70.40
2017-07-24T02:25:29.669Z,70.40
2017-07-24T02:27:57.331Z,70.30
2017-07-24T02:30:24.891Z,70.10
2017-07-24T02:32:52.560Z,69.60
2017-07-24T02:35:20.162Z,69.70
2017-07-24T02:37:47.774Z,69.20
2017-07-24T02:40:15.328Z,70.10
2017-07-24T02:42:42.990Z,71.00
2017-07-24T02:45:10.545Z,70.90
2017-07-24T02:47:38.210Z,70.60
2017-07-24T02:50:05.767Z,70.60
2017-07-24T02:52:33.434Z,70.50
2017-07-24T02:55:00.985Z,70.50
2017-07-24T02:57:28.550Z,70.00
2017-07-24T02:59:56.218Z,69.80
2017-07-24T03:02:23.782Z,69.60
2017-07-24T03:04:51.434Z,69.70
2017-07-24T03:07:19.026Z,69.70
2017-07-24T03:09:47.369Z,69.80
2017-07-24T03:12:14.950Z,69.80
2017-07-24T03:14:43.338Z,70.00
2017-07-24T03:17:11.658Z,69.60
2017-07-24T03:19:39.214Z,69.60
2017-07-24T03:22:06.794Z,69.80
2017-07-24T03:24:34.463Z,69.30
2017-07-24T03:27:02.127Z,69.40
2017-07-24T03:29:29.682Z,69.00
2017-07-24T03:31:57.353Z,69.20
2017-07-24T03:34:24.905Z,69.50
2017-07-24T03:36:52.526Z,69.20
2017-07-24T03:39:20.126Z,69.00
2017-07-24T03:41:47.781Z,68.60
2017-07-24T03:44:15.446Z,68.90
2017-07-24T03:46:43.106Z,68.80
2017-07-24T03:49:10.771Z,69.10
2017-07-24T03:51:38.430Z,68.90
2017-07-24T03:54:06.091Z,68.60
2017-07-24T03:56:33.757Z,68.50
2017-07-24T03:59:01.310Z,68.10
2017-07-24T04:01:28.897Z,67.80
2017-07-24T04:03:57.223Z,68.60
2017-07-24T04:06:24.814Z,69.00
2017-07-24T04:08:52.378Z,68.00
2017-07-24T04:11:20.738Z,68.00
2017-07-24T04:13:48.362Z,67.20
2017-07-24T04:16:15.998Z,67.60
2017-07-24T04:18:43.614Z,68.00
2017-07-24T04:21:11.285Z,67.50
2017-07-24T04:23:38.839Z,67.30
2017-07-24T04:26:06.418Z,67.40
2017-07-24T04:28:33.970Z,67.20
2017-07-24T04:31:01.627Z,67.20
2017-07-24T04:33:29.287Z,67.50
2017-07-24T04:35:56.845Z,68.00
2017-07-24T04:38:24.506Z,68.30
2017-07-24T04:40:52.167Z,67.60
2017-07-24T04:43:19.830Z,68.50
2017-07-24T04:45:47.386Z,68.60
2017-07-24T04:48:15.054Z,68.30
2017-07-24T04:50:42.657Z,68.00
2017-07-24T04:53:10.271Z,68.00
2017-07-24T04:55:37.833Z,67.90
2017-07-24T04:58:05.385Z,67.90
2017-07-24T05:00:33.052Z,68.10
2017-07-24T05:03:00.717Z,68.20
2017-07-24T05:05:28.371Z,68.10
2017-07-24T05:07:55.922Z,67.70
2017-07-24T05:10:23.490Z,67.70
2017-07-24T05:12:51.170Z,67.70
2017-07-24T05:15:18.810Z,67.50
2017-07-24T05:17:46.367Z,67.70
2017-07-24T05:20:13.921Z,67.50
2017-07-24T05:22:41.492Z,67.30
2017-07-24T05:25:09.146Z,67.30
2017-07-24T05:27:36.811Z,66.80
2017-07-24T05:30:04.470Z,67.00
2017-07-24T05:32:32.136Z,67.10
2017-07-24T05:34:59.795Z,66.70
2017-07-24T05:37:27.461Z,66.40
2017-07-24T05:39:55.042Z,66.10
2017-07-24T05:42:23.398Z,66.30
2017-07-24T05:44:51.031Z,66.20
2017-07-24T05:47:18.592Z,65.50
2017-07-24T05:49:46.145Z,65.70
2017-07-24T05:52:13.830Z,65.50
2017-07-24T05:54:41.382Z,65.20
2017-07-24T05:57:08.954Z,65.10
2017-07-24T05:59:36.618Z,64.80
2017-07-24T06:02:04.177Z,64.80
2017-07-24T06:04:31.835Z,65.20
2017-07-24T06:06:59.394Z,65.10
2017-07-24T06:09:26.948Z,65.20
2017-07-24T06:11:54.606Z,65.40
2017-07-24T06:14:22.174Z,65.30
2017-07-24T06:16:49.830Z,65.20
2017-07-24T06:19:17.494Z,64.80
2017-07-24T06:21:45.154Z,64.80
2017-07-24T06:24:12.703Z,64.40
2017-07-24T06:26:40.280Z,64.10
2017-07-24T06:29:08.036Z,64.30
2017-07-24T06:31:35.701Z,64.30
2017-07-24T06:34:03.360Z,64.30
2017-07-24T06:36:31.018Z,64.00
2017-07-24T06:38:58.574Z,63.70
2017-07-24T06:41:26.246Z,64.80
2017-07-24T06:43:53.800Z,64.00
2017-07-24T06:46:21.458Z,63.80
2017-07-24T06:48:49.123Z,64.10
2017-07-24T06:51:16.793Z,63.40
2017-07-24T06:53:44.382Z,63.60
2017-07-24T06:56:12.698Z,64.30
2017-07-24T06:58:40.250Z,64.20
2017-07-24T07:01:07.837Z,63.90
2017-07-24T07:03:35.394Z,64.00
2017-07-24T07:06:03.059Z,63.90
2017-07-24T07:08:30.725Z,63.80
2017-07-24T07:10:58.382Z,63.70
2017-07-24T07:13:26.048Z,63.60
2017-07-24T07:15:53.614Z,61.80
2017-07-24T07:18:21.194Z,62.20
2017-07-24T07:20:48.825Z,61.30
2017-07-24T07:23:16.482Z,61.50
2017-07-24T07:25:44.141Z,61.90
2017-07-24T07:28:12.744Z,60.30
2017-07-24T07:30:42.408Z,62.90
2017-07-24T07:33:12.617Z,62.00
2017-07-24T07:35:41.506Z,62.00
2017-07-24T07:38:09.627Z,61.90
2017-07-24T07:40:38.478Z,61.10
2017-07-24T07:43:07.179Z,60.60
2017-07-24T07:45:35.956Z,60.80
2017-07-24T07:48:04.637Z,59.90
2017-07-24T07:50:34.030Z,61.30
2017-07-24T07:53:15.446Z,61.20
2017-07-24T07:55:44.177Z,60.10
2017-07-24T07:58:12.067Z,59.30
2017-07-24T08:00:44.024Z,58.90
2017-07-24T08:03:12.893Z,60.40
2017-07-24T08:05:42.337Z,59.10
2017-07-24T08:08:10.993Z,59.00
2017-07-24T08:10:38.545Z,57.80
2017-07-24T08:13:06.106Z,58.00
2017-07-24T08:15:33.666Z,58.00
2017-07-24T08:18:01.320Z,57.20
2017-07-24T08:20:29.665Z,53.60
2017-07-24T08:22:57.327Z,53.60
2017-07-24T08:25:24.986Z,53.80
2017-07-24T08:27:52.852Z,53.20
2017-07-24T08:30:20.518Z,53.10
2017-07-24T08:32:48.320Z,53.60
2017-07-24T08:35:15.878Z,54.60
2017-07-24T08:37:43.558Z,54.70
2017-07-24T08:40:11.540Z,54.70
2017-07-24T08:42:39.401Z,55.40
2017-07-24T08:45:07.246Z,54.70
2017-07-24T08:47:35.009Z,54.60
2017-07-24T08:50:02.698Z,53.90
2017-07-24T08:52:30.386Z,53.20
2017-07-24T08:55:01.000Z,52.50
2017-07-24T08:57:28.781Z,54.30
2017-07-24T08:59:56.649Z,54.00
2017-07-24T09:02:24.307Z,53.80
2017-07-24T09:04:52.133Z,53.60
2017-07-24T09:07:19.730Z,54.20
2017-07-24T09:09:47.376Z,54.00
2017-07-24T09:12:15.064Z,51.10
2017-07-24T09:14:42.626Z,50.00
2017-07-24T09:17:10.406Z,50.20
2017-07-24T09:19:38.864Z,48.50
2017-07-24T09:22:06.522Z,48.50
2017-07-24T09:24:34.162Z,49.30
2017-07-24T09:27:01.738Z,48.90
2017-07-24T09:29:29.302Z,48.30
2017-07-24T09:31:56.869Z,47.60
2017-07-24T09:34:24.413Z,48.40
2017-07-24T09:36:51.960Z,48.10
2017-07-24T09:39:19.534Z,46.80
2017-07-24T09:41:47.087Z,47.60
2017-07-24T09:44:14.662Z,44.40
2017-07-24T09:46:42.277Z,45.10
2017-07-24T09:49:10.093Z,45.20
2017-07-24T09:51:37.664Z,45.80
2017-07-24T09:54:06.017Z,44.80
2017-07-24T09:56:33.584Z,44.70
2017-07-24T09:59:01.144Z,46.70
2017-07-24T10:01:28.694Z,45.50
2017-07-24T10:03:56.314Z,44.40
2017-07-24T10:06:23.862Z,44.40
2017-07-24T10:08:51.448Z,44.50
2017-07-24T10:11:20.384Z,43.30
2017-07-24T10:13:48.034Z,42.00
2017-07-24T10:16:15.581Z,41.30
2017-07-24T10:18:43.189Z,40.30
2017-07-24T10:21:10.808Z,40.80
2017-07-24T10:23:38.470Z,39.80
2017-07-24T10:26:06.134Z,40.10
2017-07-24T10:28:33.811Z,40.10
2017-07-24T10:31:02.130Z,40.20
2017-07-24T10:33:29.702Z,40.20
2017-07-24T10:35:57.286Z,39.20
2017-07-24T10:38:24.826Z,39.20
2017-07-24T10:40:52.382Z,39.00
2017-07-24T10:43:19.962Z,38.50
2017-07-24T10:45:47.535Z,38.00
2017-07-24T10:48:15.182Z,38.00
2017-07-24T10:50:42.730Z,37.10
2017-07-24T10:53:10.309Z,37.10
2017-07-24T10:55:37.962Z,38.70
2017-07-24T10:58:05.624Z,39.60
2017-07-24T11:00:33.270Z,39.70
2017-07-24T11:03:00.956Z,40.00
2017-07-24T11:05:28.619Z,40.40
2017-07-24T11:07:56.638Z,42.20
2017-07-24T11:10:24.241Z,42.80
2017-07-24T11:12:56.242Z,42.60
2017-07-24T11:15:24.034Z,42.00
2017-07-24T11:17:51.621Z,42.50
2017-07-24T11:20:19.214Z,41.00
2017-07-24T11:22:47.638Z,41.50
2017-07-24T11:25:15.301Z,41.50
2017-07-24T11:27:42.990Z,41.30
2017-07-24T11:30:10.539Z,42.20
2017-07-24T11:32:38.113Z,41.50
2017-07-24T11:35:05.878Z,41.40
2017-07-24T11:37:33.438Z,41.30
2017-07-24T11:40:01.254Z,40.30
2017-07-24T11:42:28.971Z,40.10
2017-07-24T11:44:56.694Z,40.40
2017-07-24T11:47:24.282Z,40.70
2017-07-24T11:49:51.942Z,40.00
2017-07-24T11:52:19.665Z,40.60
2017-07-24T11:54:47.267Z,41.30
2017-07-24T11:57:14.930Z,42.40
2017-07-24T11:59:42.593Z,42.60
2017-07-24T12:02:10.142Z,41.90
2017-07-24T12:04:37.696Z,40.90
2017-07-24T12:07:05.238Z,40.50
2017-07-24T12:09:32.822Z,40.60
2017-07-24T12:12:00.381Z,40.70
2017-07-24T12:14:28.045Z,41.60
2017-07-24T12:16:55.739Z,42.10
2017-07-24T12:19:24.063Z,42.70
2017-07-24T12:21:51.738Z,42.70
2017-07-24T12:24:19.306Z,43.20
2017-07-24T12:26:46.969Z,42.50
2017-07-24T12:29:14.518Z,42.90
2017-07-24T12:31:42.086Z,43.60
2017-07-24T12:34:09.746Z,44.30
2017-07-24T12:36:37.290Z,45.40
2017-07-24T12:39:04.851Z,45.00
2017-07-24T12:41:32.429Z,45.70
2017-07-24T12:44:00.081Z,45.60
2017-07-24T12:46:27.654Z,44.90
2017-07-24T12:48:55.301Z,44.60
2017-07-24T12:51:22.966Z,44.30
2017-07-24T12:53:50.578Z,44.90
2017-07-24T12:56:18.191Z,44.70
2017-07-24T12:58:45.765Z,44.50
2017-07-24T13:01:13.407Z,45.80
2017-07-24T13:03:40.970Z,47.10
2017-07-24T13:06:08.634Z,48.00
2017-07-24T13:08:36.187Z,48.70
2017-07-24T13:11:03.850Z,48.10
2017-07-24T13:13:31.506Z,48.90
2017-07-24T13:15:59.178Z,49.50
2017-07-24T13:18:26.726Z,48.70
2017-07-24T13:20:54.294Z,48.70
2017-07-24T13:23:21.954Z,48.10
2017-07-24T13:25:49.616Z,48.20
2017-07-24T13:28:17.265Z,48.20
2017-07-24T13:30:44.830Z,49.80
2017-07-24T13:33:12.379Z,49.90
2017-07-24T13:35:40.046Z,49.80
2017-07-24T13:38:07.602Z,49.90
2017-07-24T13:40:35.171Z,48.10
2017-07-24T13:43:02.719Z,48.30
2017-07-24T13:45:30.264Z,49.20
2017-07-24T13:47:57.949Z,48.90
2017-07-24T13:50:25.607Z,48.70
2017-07-24T13:52:53.169Z,48.40
2017-07-24T13:55:20.718Z,48.80
2017-07-24T13:57:48.286Z,47.40
2017-07-24T14:00:15.862Z,47.50
2017-07-24T14:02:44.294Z,46.90
2017-07-24T14:05:11.888Z,47.00
2017-07-24T14:07:39.542Z,47.60
2017-07-24T14:10:07.088Z,46.40
2017-07-24T14:12:34.844Z,46.70
2017-07-24T14:15:02.386Z,46.20
2017-07-24T14:17:29.992Z,46.60
2017-07-24T14:19:57.545Z,47.30
2017-07-24T14:22:25.090Z,46.90
2017-07-24T14:24:52.746Z,47.00
2017-07-24T14:27:20.296Z,46.20
2017-07-24T14:29:47.894Z,47.10
2017-07-24T14:32:15.448Z,46.30
2017-07-24T14:34:42.993Z,46.20
2017-07-24T14:37:10.583Z,46.80
2017-07-24T14:39:38.903Z,48.20
2017-07-24T14:42:06.458Z,48.20
2017-07-24T14:44:34.006Z,49.40
2017-07-24T14:47:01.618Z,49.40
2017-07-24T14:49:29.194Z,48.40
2017-07-24T14:51:57.552Z,50.30
2017-07-24T14:54:25.214Z,49.50
2017-07-24T14:56:52.875Z,49.10
2017-07-24T14:59:20.426Z,48.90
2017-07-24T15:01:48.097Z,49.30
2017-07-24T15:04:15.754Z,49.60
2017-07-24T15:06:43.302Z,49.70
2017-07-24T15:09:10.882Z,49.30
2017-07-24T15:11:38.427Z,49.00
2017-07-24T15:14:06.098Z,49.00
2017-07-24T15:16:33.754Z,49.10
2017-07-24T15:19:01.314Z,50.00
2017-07-24T15:21:28.861Z,50.20
2017-07-24T15:23:56.882Z,50.70
2017-07-24T15:26:24.506Z,50.80
2017-07-24T15:28:52.133Z,50.60
2017-07-24T15:31:19.732Z,50.50
2017-07-24T15:33:47.601Z,50.70
2017-07-24T15:36:15.361Z,50.70
2017-07-24T15:38:43.014Z,50.70
2017-07-24T15:41:10.738Z,50.80
2017-07-24T15:43:38.361Z,50.00
2017-07-24T15:46:06.703Z,50.30
2017-07-24T15:48:34.274Z,50.30
2017-07-24T15:51:01.938Z,50.30
2017-07-24T15:53:29.486Z,50.30
2017-07-24T15:55:57.037Z,50.00
2017-07-24T15:58:24.659Z,51.00
2017-07-24T16:00:52.273Z,50.00
2017-07-24T16:03:19.940Z,50.00
2017-07-24T16:05:47.595Z,50.20
2017-07-24T16:08:15.167Z,51.10
2017-07-24T16:10:42.822Z,51.30
2017-07-24T16:13:10.480Z,51.20
2017-07-24T16:15:38.147Z,51.60
2017-07-24T16:18:05.803Z,52.40
2017-07-24T16:20:33.464Z,53.70
2017-07-24T16:23:01.126Z,54.50
2017-07-24T16:25:28.790Z,54.10
2017-07-24T16:27:56.446Z,53.80
2017-07-24T16:30:24.006Z,53.90
2017-07-24T16:32:51.554Z,54.70
2017-07-24T16:35:19.106Z,55.40
2017-07-24T16:37:46.666Z,56.10
2017-07-24T16:40:14.347Z,56.40
2017-07-24T16:42:42.009Z,56.60
2017-07-24T16:45:09.674Z,57.30
2017-07-24T16:47:37.334Z,57.90
2017-07-24T16:50:04.990Z,58.40
2017-07-24T16:52:32.575Z,58.80
2017-07-24T16:55:00.926Z,59.00
2017-07-24T16:57:28.491Z,59.00
2017-07-24T16:59:56.153Z,59.10
2017-07-24T17:02:23.706Z,59.80
2017-07-24T17:04:51.365Z,61.10
2017-07-24T17:07:18.913Z,61.90
2017-07-24T17:09:46.464Z,62.40
2017-07-24T17:12:14.021Z,62.40
2017-07-24T17:14:41.581Z,62.60
2017-07-24T17:17:09.266Z,62.80
2017-07-24T17:19:36.930Z,62.40
2017-07-24T17:22:04.596Z,61.20
2017-07-24T17:24:32.176Z,62.60
2017-07-24T17:27:01.268Z,63.60
2017-07-24T17:29:29.797Z,63.80
2017-07-24T17:31:57.394Z,63.80
2017-07-24T17:34:25.769Z,64.60
2017-07-24T17:36:53.326Z,64.60
2017-07-24T17:39:20.982Z,63.40
2017-07-24T17:41:48.649Z,64.10
2017-07-24T17:44:16.315Z,64.60
2017-07-24T17:46:43.917Z,64.20
2017-07-24T17:49:11.558Z,65.10
2017-07-24T17:51:39.930Z,65.30
2017-07-24T17:54:08.381Z,65.40
2017-07-24T17:56:36.198Z,65.30
2017-07-24T17:59:04.254Z,65.70
2017-07-24T18:01:32.981Z,66.60
2017-07-24T18:04:00.539Z,66.50
2017-07-24T18:06:28.370Z,66.00
2017-07-24T18:08:56.827Z,66.60
2017-07-24T18:11:24.378Z,66.60
2017-07-24T18:13:52.212Z,67.10
2017-07-24T18:16:19.875Z,67.10
2017-07-24T18:18:47.498Z,67.10
2017-07-24T18:21:15.118Z,66.80
2017-07-24T18:23:42.666Z,66.80
2017-07-24T18:26:10.353Z,66.80
2017-07-24T18:28:37.999Z,67.40
2017-07-24T18:31:05.658Z,67.20
2017-07-24T18:33:33.226Z,67.00
2017-07-24T18:36:00.766Z,67.30
2017-07-24T18:38:28.333Z,67.20
2017-07-24T18:41:00.993Z,68.40
2017-07-24T18:43:29.118Z,66.90
2017-07-24T18:45:57.437Z,68.10
2017-07-24T18:48:25.127Z,68.10
2017-07-24T18:50:52.795Z,67.90
2017-07-24T18:53:20.527Z,67.60
2017-07-24T18:55:48.154Z,67.30
2017-07-24T18:58:15.849Z,67.10
2017-07-24T19:00:44.506Z,67.80
2017-07-24T19:03:12.118Z,67.60
2017-07-24T19:05:39.668Z,67.70
2017-07-24T19:08:07.246Z,67.50
2017-07-24T19:10:34.894Z,67.60
2017-07-24T19:13:02.446Z,67.30
2017-07-24T19:15:30.018Z,67.20
2017-07-24T19:17:57.678Z,67.30
2017-07-24T19:20:25.255Z,67.50
2017-07-24T19:22:53.618Z,67.30
2017-07-24T19:25:21.274Z,67.80
2017-07-24T19:27:48.847Z,67.80
2017-07-24T19:30:16.500Z,68.00
2017-07-24T19:32:44.153Z,68.40
2017-07-24T19:35:11.814Z,68.30
2017-07-24T19:37:39.374Z,68.40
2017-07-24T19:40:06.934Z,68.40
2017-07-24T19:42:35.185Z,68.10
2017-07-24T19:45:02.873Z,68.70
2017-07-24T19:47:30.536Z,69.00
2017-07-24T19:49:58.272Z,69.20
2017-07-24T19:52:26.003Z,68.80
2017-07-24T19:54:53.554Z,68.70
2017-07-24T19:57:22.003Z,69.20
2017-07-24T19:59:49.666Z,69.20
2017-07-24T20:02:17.398Z,69.00
2017-07-24T20:04:45.075Z,69.30
2017-07-24T20:07:13.445Z,69.50
2017-07-24T20:09:41.175Z,69.50
2017-07-24T20:12:08.792Z,69.40
2017-07-24T20:14:36.452Z,69.10
2017-07-24T20:17:04.006Z,69.20
2017-07-24T20:19:31.711Z,69.30
2017-07-24T20:21:59.289Z,69.40
2017-07-24T20:24:26.963Z,69.20
2017-07-24T20:26:54.733Z,69.10
2017-07-24T20:29:23.574Z,69.20
2017-07-24T20:31:51.919Z,69.20
2017-07-24T20:34:19.842Z,69.10
2017-07-24T20:36:47.389Z,69.10
2017-07-24T20:39:15.010Z,69.30
2017-07-24T20:41:42.570Z,69.50
2017-07-24T20:44:10.121Z,69.20
2017-07-24T20:46:37.710Z,69.40
2017-07-24T20:49:06.066Z,69.50
2017-07-24T20:51:33.615Z,69.30
2017-07-24T20:54:01.168Z,69.30
2017-07-24T20:56:28.746Z,69.50
2017-07-24T20:58:56.318Z,69.70
2017-07-24T21:01:24.674Z,71.60
2017-07-24T21:03:52.234Z,70.60
2017-07-24T21:06:19.806Z,71.40
2017-07-24T21:08:47.358Z,71.90
2017-07-24T21:11:15.214Z,72.20
2017-07-24T21:13:42.774Z,72.20
2017-07-24T21:16:10.322Z,71.90
2017-07-24T21:18:37.894Z,71.80
2017-07-24T21:21:05.442Z,71.60
2017-07-24T21:23:33.426Z,71.80
2017-07-24T21:26:00.970Z,71.70
2017-07-24T21:28:28.538Z,71.50
2017-07-24T21:30:56.090Z,71.70
2017-07-24T21:33:23.661Z,71.20
2017-07-24T21:35:51.235Z,71.40
2017-07-24T21:38:18.788Z,71.30
2017-07-24T21:40:46.438Z,71.80
2017-07-24T21:43:14.093Z,72.20
2017-07-24T21:45:41.646Z,71.90
2017-07-24T21:48:09.318Z,71.90
2017-07-24T21:50:36.874Z,71.70
2017-07-24T21:53:04.422Z,71.80
2017-07-24T21:55:31.995Z,71.80
2017-07-24T21:57:59.554Z,71.90
2017-07-24T22:00:27.131Z,72.30
2017-07-24T22:02:54.770Z,72.50
2017-07-24T22:05:23.149Z,72.30
2017-07-24T22:07:50.697Z,71.90
2017-07-24T22:10:18.274Z,72.30
2017-07-24T22:12:45.903Z,72.40
2017-07-24T22:15:13.489Z,72.80
2017-07-24T22:17:41.050Z,73.30
2017-07-24T22:20:08.594Z,73.80
2017-07-24T22:22:36.166Z,74.20
2017-07-24T22:25:03.733Z,74.00
2017-07-24T22:27:31.387Z,73.60
2017-07-24T22:29:59.046Z,73.90
2017-07-24T22:32:26.609Z,73.80
2017-07-24T22:34:54.155Z,73.50
2017-07-24T22:37:21.739Z,73.60
2017-07-24T22:39:49.382Z,73.80
2017-07-24T22:42:16.949Z,74.30
2017-07-24T22:44:44.610Z,74.10
2017-07-24T22:47:12.266Z,74.60
2017-07-24T22:49:39.934Z,75.30
2017-07-24T22:52:07.481Z,75.80
2017-07-24T22:54:35.029Z,75.80
2017-07-24T22:57:02.578Z,75.10
2017-07-24T22:59:30.166Z,74.50
2017-07-24T23:01:57.799Z,73.20
2017-07-24T23:04:25.341Z,72.80
2017-07-24T23:06:52.941Z,72.80
2017-07-24T23:09:20.512Z,72.50
2017-07-24T23:11:48.159Z,73.30
2017-07-24T23:14:16.125Z,72.70
2017-07-24T23:16:43.666Z,72.60
2017-07-24T23:19:11.222Z,72.40
2017-07-24T23:21:38.772Z,72.10
2017-07-24T23:24:06.313Z,72.30
2017-07-24T23:26:33.899Z,72.30
2017-07-24T23:29:01.486Z,72.10
2017-07-24T23:31:29.143Z,72.30
2017-07-24T23:33:56.814Z,72.30
2017-07-24T23:36:24.360Z,71.70
2017-07-24T23:38:52.014Z,72.10
2017-07-24T23:41:19.586Z,72.60
2017-07-24T23:43:47.142Z,72.40
2017-07-24T23:46:14.691Z,71.90
2017-07-24T23:48:42.267Z,72.20
2017-07-24T23:51:09.922Z,72.30
2017-07-24T23:53:37.473Z,72.30
2017-07-24T23:56:05.044Z,72.10
2017-07-24T23:58:32.590Z,72.10
